sensor_id;sensor_type;location;lat;lon;timestamp;P1;durP1;ratioP1;P2;durP2;ratioP2
20287;SDS011;10303;51.960;8.372;2023-05-10T00:00:39;2.77;;;2.53;;
20287;SDS011;10303;51.960;8.372;2023-05-10T00:03:06;2.80;;;2.60;;
20287;SDS011;10303;51.960;8.372;2023-05-10T00:05:32;3.00;;;2.80;;
20287;SDS011;10303;51.960;8.372;2023-05-10T00:07:58;2.97;;;2.40;;
20287;SDS011;10303;51.960;8.372;2023-05-10T00:10:24;2.50;;;2.30;;
20287;SDS011;10303;51.960;8.372;2023-05-10T00:12:50;2.80;;;2.50;;
20287;SDS011;10303;51.960;8.372;2023-05-10T00:15:16;2.70;;;2.50;;
20287;SDS011;10303;51.960;8.372;2023-05-10T00:17:42;3.37;;;2.23;;
20287;SDS011;10303;51.960;8.372;2023-05-10T00:20:08;2.43;;;2.23;;
20287;SDS011;10303;51.960;8.372;2023-05-10T00:22:35;3.10;;;2.83;;
20287;SDS011;10303;51.960;8.372;2023-05-10T00:25:01;2.90;;;2.50;;
20287;SDS011;10303;51.960;8.372;2023-05-10T00:27:27;2.77;;;2.57;;
20287;SDS011;10303;51.960;8.372;2023-05-10T00:29:53;2.47;;;2.27;;
20287;SDS011;10303;51.960;8.372;2023-05-10T00:32:19;3.43;;;2.63;;
20287;SDS011;10303;51.960;8.372;2023-05-10T00:34:45;2.50;;;2.30;;
20287;SDS011;10303;51.960;8.372;2023-05-10T00:37:11;3.03;;;2.83;;
20287;SDS011;10303;51.960;8.372;2023-05-10T00:39:37;3.33;;;3.03;;
20287;SDS011;10303;51.960;8.372;2023-05-10T00:42:04;3.03;;;2.83;;
20287;SDS011;10303;51.960;8.372;2023-05-10T00:44:30;2.73;;;2.53;;
20287;SDS011;10303;51.960;8.372;2023-05-10T00:46:56;3.00;;;2.70;;
20287;SDS011;10303;51.960;8.372;2023-05-10T00:49:23;4.07;;;3.60;;
20287;SDS011;10303;51.960;8.372;2023-05-10T00:51:49;2.60;;;2.40;;
20287;SDS011;10303;51.960;8.372;2023-05-10T00:54:15;3.00;;;2.70;;
20287;SDS011;10303;51.960;8.372;2023-05-10T00:56:42;2.90;;;2.70;;
20287;SDS011;10303;51.960;8.372;2023-05-10T00:59:14;3.10;;;2.90;;
20287;SDS011;10303;51.960;8.372;2023-05-10T01:01:47;2.40;;;2.30;;
20287;SDS011;10303;51.960;8.372;2023-05-10T01:04:13;2.60;;;2.40;;
20287;SDS011;10303;51.960;8.372;2023-05-10T01:06:41;2.73;;;2.53;;
20287;SDS011;10303;51.960;8.372;2023-05-10T01:09:08;3.97;;;2.83;;
20287;SDS011;10303;51.960;8.372;2023-05-10T01:11:35;2.83;;;2.63;;
20287;SDS011;10303;51.960;8.372;2023-05-10T01:14:03;2.70;;;2.50;;
20287;SDS011;10303;51.960;8.372;2023-05-10T01:16:35;2.70;;;2.50;;
20287;SDS011;10303;51.960;8.372;2023-05-10T01:19:10;2.33;;;2.10;;
20287;SDS011;10303;51.960;8.372;2023-05-10T01:21:47;2.43;;;2.33;;
20287;SDS011;10303;51.960;8.372;2023-05-10T01:30:44;2.67;;;2.47;;
20287;SDS011;10303;51.960;8.372;2023-05-10T01:33:35;2.80;;;2.60;;
20287;SDS011;10303;51.960;8.372;2023-05-10T01:36:51;2.73;;;2.53;;
20287;SDS011;10303;51.960;8.372;2023-05-10T01:39:36;3.40;;;2.30;;
20287;SDS011;10303;51.960;8.372;2023-05-10T01:42:23;3.03;;;2.13;;
20287;SDS011;10303;51.960;8.372;2023-05-10T01:45:14;2.07;;;1.87;;
20287;SDS011;10303;51.960;8.372;2023-05-10T01:48:06;2.40;;;2.10;;
20287;SDS011;10303;51.960;8.372;2023-05-10T01:50:37;2.03;;;1.93;;
20287;SDS011;10303;51.960;8.372;2023-05-10T01:53:08;2.90;;;2.70;;
20287;SDS011;10303;51.960;8.372;2023-05-10T01:55:47;2.33;;;2.03;;
20287;SDS011;10303;51.960;8.372;2023-05-10T01:58:22;2.17;;;1.97;;
20287;SDS011;10303;51.960;8.372;2023-05-10T02:00:57;2.67;;;2.47;;
20287;SDS011;10303;51.960;8.372;2023-05-10T02:03:27;3.13;;;2.83;;
20287;SDS011;10303;51.960;8.372;2023-05-10T02:05:56;3.03;;;2.23;;
20287;SDS011;10303;51.960;8.372;2023-05-10T02:08:24;2.77;;;2.40;;
20287;SDS011;10303;51.960;8.372;2023-05-10T02:10:53;3.10;;;2.90;;
20287;SDS011;10303;51.960;8.372;2023-05-10T02:13:21;2.53;;;2.33;;
20287;SDS011;10303;51.960;8.372;2023-05-10T02:15:51;2.27;;;2.07;;
20287;SDS011;10303;51.960;8.372;2023-05-10T02:18:20;3.07;;;2.77;;
20287;SDS011;10303;51.960;8.372;2023-05-10T02:20:48;2.43;;;2.23;;
20287;SDS011;10303;51.960;8.372;2023-05-10T02:23:17;2.07;;;1.87;;
20287;SDS011;10303;51.960;8.372;2023-05-10T02:25:45;2.10;;;1.90;;
20287;SDS011;10303;51.960;8.372;2023-05-10T02:28:14;3.73;;;2.63;;
20287;SDS011;10303;51.960;8.372;2023-05-10T02:30:43;2.10;;;1.90;;
20287;SDS011;10303;51.960;8.372;2023-05-10T02:33:09;1.97;;;1.73;;
20287;SDS011;10303;51.960;8.372;2023-05-10T02:35:38;1.47;;;1.30;;
20287;SDS011;10303;51.960;8.372;2023-05-10T02:38:04;2.23;;;2.03;;
20287;SDS011;10303;51.960;8.372;2023-05-10T02:40:33;2.97;;;2.60;;
20287;SDS011;10303;51.960;8.372;2023-05-10T02:43:02;4.17;;;3.23;;
20287;SDS011;10303;51.960;8.372;2023-05-10T02:45:34;2.40;;;2.20;;
20287;SDS011;10303;51.960;8.372;2023-05-10T02:48:04;3.13;;;2.83;;
20287;SDS011;10303;51.960;8.372;2023-05-10T02:50:30;3.20;;;2.73;;
20287;SDS011;10303;51.960;8.372;2023-05-10T02:53:06;2.90;;;2.70;;
20287;SDS011;10303;51.960;8.372;2023-05-10T02:55:40;5.03;;;3.20;;
20287;SDS011;10303;51.960;8.372;2023-05-10T02:58:10;3.00;;;2.70;;
20287;SDS011;10303;51.960;8.372;2023-05-10T03:00:36;3.77;;;3.40;;
20287;SDS011;10303;51.960;8.372;2023-05-10T03:03:02;4.83;;;3.70;;
20287;SDS011;10303;51.960;8.372;2023-05-10T03:05:28;4.57;;;3.27;;
20287;SDS011;10303;51.960;8.372;2023-05-10T03:07:58;5.03;;;3.80;;
20287;SDS011;10303;51.960;8.372;2023-05-10T03:10:29;3.53;;;3.23;;
20287;SDS011;10303;51.960;8.372;2023-05-10T03:12:59;2.93;;;2.40;;
20287;SDS011;10303;51.960;8.372;2023-05-10T03:16:15;5.23;;;3.47;;
20287;SDS011;10303;51.960;8.372;2023-05-10T03:21:28;2.80;;;2.60;;
20287;SDS011;10303;51.960;8.372;2023-05-10T03:24:05;3.63;;;2.73;;
20287;SDS011;10303;51.960;8.372;2023-05-10T03:26:35;2.40;;;2.20;;
20287;SDS011;10303;51.960;8.372;2023-05-10T03:29:11;4.97;;;3.70;;
20287;SDS011;10303;51.960;8.372;2023-05-10T03:31:40;2.67;;;2.47;;
20287;SDS011;10303;51.960;8.372;2023-05-10T03:34:07;2.47;;;2.27;;
20287;SDS011;10303;51.960;8.372;2023-05-10T03:36:33;2.33;;;2.13;;
20287;SDS011;10303;51.960;8.372;2023-05-10T03:38:59;2.60;;;2.40;;
20287;SDS011;10303;51.960;8.372;2023-05-10T03:41:26;1.60;;;1.50;;
20287;SDS011;10303;51.960;8.372;2023-05-10T03:43:53;1.17;;;1.07;;
20287;SDS011;10303;51.960;8.372;2023-05-10T03:46:19;1.10;;;0.90;;
20287;SDS011;10303;51.960;8.372;2023-05-10T03:48:45;0.90;;;0.90;;
20287;SDS011;10303;51.960;8.372;2023-05-10T03:51:11;0.67;;;0.67;;
20287;SDS011;10303;51.960;8.372;2023-05-10T03:53:38;1.60;;;0.80;;
20287;SDS011;10303;51.960;8.372;2023-05-10T03:56:04;0.70;;;0.70;;
20287;SDS011;10303;51.960;8.372;2023-05-10T03:58:30;0.70;;;0.70;;
20287;SDS011;10303;51.960;8.372;2023-05-10T04:00:57;0.40;;;0.40;;
20287;SDS011;10303;51.960;8.372;2023-05-10T04:03:23;0.60;;;0.60;;
20287;SDS011;10303;51.960;8.372;2023-05-10T04:05:58;0.50;;;0.50;;
20287;SDS011;10303;51.960;8.372;2023-05-10T04:08:27;0.70;;;0.70;;
20287;SDS011;10303;51.960;8.372;2023-05-10T04:10:54;0.70;;;0.70;;
20287;SDS011;10303;51.960;8.372;2023-05-10T04:13:20;2.40;;;1.10;;
20287;SDS011;10303;51.960;8.372;2023-05-10T04:15:46;1.20;;;0.70;;
20287;SDS011;10303;51.960;8.372;2023-05-10T04:18:12;0.90;;;0.90;;
20287;SDS011;10303;51.960;8.372;2023-05-10T04:20:38;0.80;;;0.80;;
20287;SDS011;10303;51.960;8.372;2023-05-10T04:23:04;2.33;;;0.93;;
20287;SDS011;10303;51.960;8.372;2023-05-10T04:25:30;0.83;;;0.83;;
20287;SDS011;10303;51.960;8.372;2023-05-10T04:27:59;1.20;;;1.10;;
20287;SDS011;10303;51.960;8.372;2023-05-10T04:30:25;1.27;;;1.17;;
20287;SDS011;10303;51.960;8.372;2023-05-10T04:32:53;2.17;;;1.60;;
20287;SDS011;10303;51.960;8.372;2023-05-10T04:35:19;0.87;;;0.87;;
20287;SDS011;10303;51.960;8.372;2023-05-10T04:37:45;1.07;;;0.97;;
20287;SDS011;10303;51.960;8.372;2023-05-10T04:40:11;1.00;;;0.90;;
20287;SDS011;10303;51.960;8.372;2023-05-10T04:42:39;1.07;;;0.97;;
20287;SDS011;10303;51.960;8.372;2023-05-10T04:45:06;1.23;;;1.20;;
20287;SDS011;10303;51.960;8.372;2023-05-10T04:47:34;1.80;;;1.40;;
20287;SDS011;10303;51.960;8.372;2023-05-10T04:50:00;2.07;;;1.10;;
20287;SDS011;10303;51.960;8.372;2023-05-10T04:52:26;1.80;;;1.70;;
20287;SDS011;10303;51.960;8.372;2023-05-10T04:54:52;1.67;;;1.10;;
20287;SDS011;10303;51.960;8.372;2023-05-10T04:57:18;1.63;;;1.20;;
20287;SDS011;10303;51.960;8.372;2023-05-10T04:59:44;2.10;;;1.17;;
20287;SDS011;10303;51.960;8.372;2023-05-10T05:02:10;1.10;;;1.10;;
20287;SDS011;10303;51.960;8.372;2023-05-10T05:04:36;1.60;;;0.97;;
20287;SDS011;10303;51.960;8.372;2023-05-10T05:07:02;0.80;;;0.77;;
20287;SDS011;10303;51.960;8.372;2023-05-10T05:09:28;0.90;;;0.83;;
20287;SDS011;10303;51.960;8.372;2023-05-10T05:11:55;2.20;;;1.00;;
20287;SDS011;10303;51.960;8.372;2023-05-10T05:14:21;1.53;;;1.10;;
20287;SDS011;10303;51.960;8.372;2023-05-10T05:16:47;1.30;;;1.20;;
20287;SDS011;10303;51.960;8.372;2023-05-10T05:19:13;1.33;;;1.23;;
20287;SDS011;10303;51.960;8.372;2023-05-10T05:21:39;1.47;;;1.17;;
20287;SDS011;10303;51.960;8.372;2023-05-10T05:24:05;1.23;;;1.13;;
20287;SDS011;10303;51.960;8.372;2023-05-10T05:26:31;1.40;;;1.30;;
20287;SDS011;10303;51.960;8.372;2023-05-10T05:28:57;1.40;;;0.90;;
20287;SDS011;10303;51.960;8.372;2023-05-10T05:31:23;1.33;;;1.23;;
20287;SDS011;10303;51.960;8.372;2023-05-10T05:33:49;1.20;;;1.10;;
20287;SDS011;10303;51.960;8.372;2023-05-10T05:36:15;6.97;;;1.80;;
20287;SDS011;10303;51.960;8.372;2023-05-10T05:38:41;0.97;;;0.97;;
20287;SDS011;10303;51.960;8.372;2023-05-10T05:41:08;1.07;;;0.97;;
20287;SDS011;10303;51.960;8.372;2023-05-10T05:43:34;1.67;;;1.30;;
20287;SDS011;10303;51.960;8.372;2023-05-10T05:46:00;1.00;;;0.90;;
20287;SDS011;10303;51.960;8.372;2023-05-10T05:48:26;1.70;;;1.60;;
20287;SDS011;10303;51.960;8.372;2023-05-10T05:50:55;0.97;;;0.70;;
20287;SDS011;10303;51.960;8.372;2023-05-10T05:53:22;1.53;;;1.40;;
20287;SDS011;10303;51.960;8.372;2023-05-10T05:55:54;0.83;;;0.83;;
20287;SDS011;10303;51.960;8.372;2023-05-10T05:58:23;1.53;;;1.43;;
20287;SDS011;10303;51.960;8.372;2023-05-10T06:00:50;1.40;;;1.20;;
20287;SDS011;10303;51.960;8.372;2023-05-10T06:03:18;5.60;;;1.10;;
20287;SDS011;10303;51.960;8.372;2023-05-10T06:05:44;1.03;;;0.93;;
20287;SDS011;10303;51.960;8.372;2023-05-10T06:08:10;1.50;;;1.40;;
20287;SDS011;10303;51.960;8.372;2023-05-10T06:10:36;1.63;;;1.53;;
20287;SDS011;10303;51.960;8.372;2023-05-10T06:13:02;1.73;;;1.40;;
20287;SDS011;10303;51.960;8.372;2023-05-10T06:15:28;1.33;;;1.10;;
20287;SDS011;10303;51.960;8.372;2023-05-10T06:17:54;1.80;;;1.50;;
20287;SDS011;10303;51.960;8.372;2023-05-10T06:20:20;1.33;;;1.20;;
20287;SDS011;10303;51.960;8.372;2023-05-10T06:22:46;1.10;;;1.10;;
20287;SDS011;10303;51.960;8.372;2023-05-10T06:25:12;1.57;;;1.40;;
20287;SDS011;10303;51.960;8.372;2023-05-10T06:27:39;4.43;;;1.10;;
20287;SDS011;10303;51.960;8.372;2023-05-10T06:30:05;1.17;;;1.07;;
20287;SDS011;10303;51.960;8.372;2023-05-10T06:32:33;3.20;;;1.60;;
20287;SDS011;10303;51.960;8.372;2023-05-10T06:34:59;0.73;;;0.70;;
20287;SDS011;10303;51.960;8.372;2023-05-10T06:37:25;0.93;;;0.80;;
20287;SDS011;10303;51.960;8.372;2023-05-10T06:39:51;1.57;;;1.20;;
20287;SDS011;10303;51.960;8.372;2023-05-10T06:42:17;1.83;;;1.00;;
20287;SDS011;10303;51.960;8.372;2023-05-10T06:44:45;1.60;;;1.37;;
20287;SDS011;10303;51.960;8.372;2023-05-10T06:47:11;2.23;;;1.90;;
20287;SDS011;10303;51.960;8.372;2023-05-10T06:49:37;1.50;;;1.30;;
20287;SDS011;10303;51.960;8.372;2023-05-10T06:52:03;1.30;;;1.03;;
20287;SDS011;10303;51.960;8.372;2023-05-10T06:54:29;3.27;;;1.83;;
20287;SDS011;10303;51.960;8.372;2023-05-10T06:56:55;2.30;;;1.57;;
20287;SDS011;10303;51.960;8.372;2023-05-10T06:59:21;1.30;;;1.20;;
20287;SDS011;10303;51.960;8.372;2023-05-10T07:01:47;2.07;;;1.90;;
20287;SDS011;10303;51.960;8.372;2023-05-10T07:04:13;1.60;;;1.50;;
20287;SDS011;10303;51.960;8.372;2023-05-10T07:06:39;2.80;;;1.80;;
20287;SDS011;10303;51.960;8.372;2023-05-10T07:09:05;2.90;;;1.93;;
20287;SDS011;10303;51.960;8.372;2023-05-10T07:11:31;2.50;;;2.30;;
20287;SDS011;10303;51.960;8.372;2023-05-10T07:13:56;1.77;;;1.63;;
20287;SDS011;10303;51.960;8.372;2023-05-10T07:16:22;1.40;;;1.30;;
20287;SDS011;10303;51.960;8.372;2023-05-10T07:18:48;2.63;;;2.17;;
20287;SDS011;10303;51.960;8.372;2023-05-10T07:21:15;5.50;;;3.83;;
20287;SDS011;10303;51.960;8.372;2023-05-10T07:23:41;4.17;;;3.23;;
20287;SDS011;10303;51.960;8.372;2023-05-10T07:26:07;3.60;;;2.20;;
20287;SDS011;10303;51.960;8.372;2023-05-10T07:28:34;3.30;;;2.13;;
20287;SDS011;10303;51.960;8.372;2023-05-10T07:31:02;4.10;;;2.90;;
20287;SDS011;10303;51.960;8.372;2023-05-10T07:33:28;3.27;;;2.50;;
20287;SDS011;10303;51.960;8.372;2023-05-10T07:35:54;3.70;;;2.67;;
20287;SDS011;10303;51.960;8.372;2023-05-10T07:38:20;3.03;;;2.70;;
20287;SDS011;10303;51.960;8.372;2023-05-10T07:40:46;4.13;;;3.70;;
20287;SDS011;10303;51.960;8.372;2023-05-10T07:43:12;5.77;;;3.73;;
20287;SDS011;10303;51.960;8.372;2023-05-10T07:45:38;5.80;;;4.13;;
20287;SDS011;10303;51.960;8.372;2023-05-10T07:48:04;4.90;;;3.20;;
20287;SDS011;10303;51.960;8.372;2023-05-10T07:50:30;3.50;;;3.20;;
20287;SDS011;10303;51.960;8.372;2023-05-10T07:52:56;7.20;;;4.47;;
20287;SDS011;10303;51.960;8.372;2023-05-10T07:55:22;5.73;;;3.70;;
20287;SDS011;10303;51.960;8.372;2023-05-10T07:57:48;9.77;;;5.87;;
20287;SDS011;10303;51.960;8.372;2023-05-10T08:00:16;5.77;;;4.43;;
20287;SDS011;10303;51.960;8.372;2023-05-10T08:02:45;8.17;;;4.73;;
20287;SDS011;10303;51.960;8.372;2023-05-10T08:05:11;6.60;;;5.40;;
20287;SDS011;10303;51.960;8.372;2023-05-10T08:07:38;9.50;;;5.80;;
20287;SDS011;10303;51.960;8.372;2023-05-10T08:10:04;11.70;;;6.57;;
20287;SDS011;10303;51.960;8.372;2023-05-10T08:12:31;10.13;;;5.77;;
20287;SDS011;10303;51.960;8.372;2023-05-10T08:14:57;8.77;;;6.13;;
20287;SDS011;10303;51.960;8.372;2023-05-10T08:17:23;6.87;;;4.67;;
20287;SDS011;10303;51.960;8.372;2023-05-10T08:19:49;6.80;;;4.23;;
20287;SDS011;10303;51.960;8.372;2023-05-10T08:22:15;11.87;;;6.63;;
20287;SDS011;10303;51.960;8.372;2023-05-10T08:24:41;10.63;;;6.60;;
20287;SDS011;10303;51.960;8.372;2023-05-10T08:27:07;12.93;;;6.57;;
20287;SDS011;10303;51.960;8.372;2023-05-10T08:29:33;8.77;;;5.27;;
20287;SDS011;10303;51.960;8.372;2023-05-10T08:31:59;8.87;;;5.53;;
20287;SDS011;10303;51.960;8.372;2023-05-10T08:34:26;10.87;;;6.50;;
20287;SDS011;10303;51.960;8.372;2023-05-10T08:36:52;15.70;;;7.93;;
20287;SDS011;10303;51.960;8.372;2023-05-10T08:39:18;14.27;;;8.10;;
20287;SDS011;10303;51.960;8.372;2023-05-10T08:41:44;13.33;;;6.50;;
20287;SDS011;10303;51.960;8.372;2023-05-10T08:44:14;17.30;;;8.70;;
20287;SDS011;10303;51.960;8.372;2023-05-10T08:46:41;9.13;;;6.60;;
20287;SDS011;10303;51.960;8.372;2023-05-10T08:49:16;10.50;;;6.90;;
20287;SDS011;10303;51.960;8.372;2023-05-10T08:51:44;10.03;;;6.27;;
20287;SDS011;10303;51.960;8.372;2023-05-10T08:54:20;12.23;;;6.97;;
20287;SDS011;10303;51.960;8.372;2023-05-10T08:56:48;12.77;;;8.00;;
20287;SDS011;10303;51.960;8.372;2023-05-10T08:59:14;9.90;;;6.43;;
20287;SDS011;10303;51.960;8.372;2023-05-10T09:01:41;12.57;;;6.07;;
20287;SDS011;10303;51.960;8.372;2023-05-10T09:04:10;11.23;;;6.83;;
20287;SDS011;10303;51.960;8.372;2023-05-10T09:06:38;23.73;;;11.30;;
20287;SDS011;10303;51.960;8.372;2023-05-10T09:09:04;19.97;;;9.63;;
20287;SDS011;10303;51.960;8.372;2023-05-10T09:11:30;25.37;;;11.67;;
20287;SDS011;10303;51.960;8.372;2023-05-10T09:13:57;18.07;;;9.60;;
20287;SDS011;10303;51.960;8.372;2023-05-10T09:16:23;16.30;;;8.33;;
20287;SDS011;10303;51.960;8.372;2023-05-10T09:18:49;18.03;;;10.37;;
20287;SDS011;10303;51.960;8.372;2023-05-10T09:21:15;15.33;;;8.93;;
20287;SDS011;10303;51.960;8.372;2023-05-10T09:23:45;17.00;;;10.40;;
20287;SDS011;10303;51.960;8.372;2023-05-10T09:26:11;21.77;;;11.23;;
20287;SDS011;10303;51.960;8.372;2023-05-10T09:28:50;16.67;;;9.07;;
20287;SDS011;10303;51.960;8.372;2023-05-10T09:31:22;18.67;;;10.90;;
20287;SDS011;10303;51.960;8.372;2023-05-10T09:33:50;16.00;;;9.93;;
20287;SDS011;10303;51.960;8.372;2023-05-10T09:36:17;20.03;;;9.23;;
20287;SDS011;10303;51.960;8.372;2023-05-10T09:38:46;17.73;;;8.90;;
20287;SDS011;10303;51.960;8.372;2023-05-10T09:41:18;13.13;;;8.33;;
20287;SDS011;10303;51.960;8.372;2023-05-10T09:43:48;13.87;;;9.00;;
20287;SDS011;10303;51.960;8.372;2023-05-10T09:46:15;11.97;;;7.97;;
20287;SDS011;10303;51.960;8.372;2023-05-10T09:48:42;14.23;;;8.57;;
20287;SDS011;10303;51.960;8.372;2023-05-10T09:53:47;11.13;;;6.90;;
20287;SDS011;10303;51.960;8.372;2023-05-10T09:56:34;13.60;;;7.37;;
20287;SDS011;10303;51.960;8.372;2023-05-10T09:59:04;16.83;;;9.90;;
20287;SDS011;10303;51.960;8.372;2023-05-10T10:01:33;15.13;;;9.03;;
20287;SDS011;10303;51.960;8.372;2023-05-10T10:04:07;13.13;;;7.80;;
20287;SDS011;10303;51.960;8.372;2023-05-10T10:06:35;8.87;;;6.30;;
20287;SDS011;10303;51.960;8.372;2023-05-10T10:09:05;12.10;;;7.17;;
20287;SDS011;10303;51.960;8.372;2023-05-10T10:11:36;12.40;;;7.73;;
20287;SDS011;10303;51.960;8.372;2023-05-10T10:14:04;11.43;;;6.33;;
20287;SDS011;10303;51.960;8.372;2023-05-10T10:16:31;11.90;;;6.87;;
20287;SDS011;10303;51.960;8.372;2023-05-10T10:18:58;9.40;;;6.50;;
20287;SDS011;10303;51.960;8.372;2023-05-10T10:21:24;11.43;;;7.43;;
20287;SDS011;10303;51.960;8.372;2023-05-10T10:23:50;10.82;;;6.82;;
20287;SDS011;10303;51.960;8.372;2023-05-10T10:26:18;7.00;;;5.25;;
20287;SDS011;10303;51.960;8.372;2023-05-10T10:28:51;7.75;;;6.38;;
20287;SDS011;10303;51.960;8.372;2023-05-10T10:31:44;9.25;;;5.82;;
20287;SDS011;10303;51.960;8.372;2023-05-10T10:34:44;10.02;;;6.95;;
20287;SDS011;10303;51.960;8.372;2023-05-10T10:37:11;5.63;;;4.25;;
20287;SDS011;10303;51.960;8.372;2023-05-10T10:39:37;7.25;;;5.38;;
20287;SDS011;10303;51.960;8.372;2023-05-10T10:42:03;5.07;;;4.25;;
20287;SDS011;10303;51.960;8.372;2023-05-10T10:47:02;6.95;;;4.93;;
20287;SDS011;10303;51.960;8.372;2023-05-10T10:49:37;5.50;;;4.30;;
20287;SDS011;10303;51.960;8.372;2023-05-10T10:52:13;8.23;;;5.45;;
20287;SDS011;10303;51.960;8.372;2023-05-10T10:55:00;10.27;;;5.22;;
20287;SDS011;10303;51.960;8.372;2023-05-10T10:57:26;7.35;;;5.07;;
20287;SDS011;10303;51.960;8.372;2023-05-10T11:11:08;3.63;;;2.63;;
20287;SDS011;10303;51.960;8.372;2023-05-10T11:13:37;4.35;;;3.83;;
20287;SDS011;10303;51.960;8.372;2023-05-10T11:18:53;5.20;;;3.30;;
20287;SDS011;10303;51.960;8.372;2023-05-10T11:21:33;5.13;;;3.90;;
20287;SDS011;10303;51.960;8.372;2023-05-10T11:24:13;6.88;;;4.05;;
20287;SDS011;10303;51.960;8.372;2023-05-10T11:26:41;5.82;;;4.90;;
20287;SDS011;10303;51.960;8.372;2023-05-10T11:29:08;5.50;;;3.67;;
20287;SDS011;10303;51.960;8.372;2023-05-10T11:31:34;7.38;;;4.95;;
20287;SDS011;10303;51.960;8.372;2023-05-10T11:34:08;3.88;;;3.10;;
20287;SDS011;10303;51.960;8.372;2023-05-10T11:36:35;7.07;;;5.00;;
20287;SDS011;10303;51.960;8.372;2023-05-10T11:39:01;7.45;;;4.20;;
20287;SDS011;10303;51.960;8.372;2023-05-10T11:41:29;7.43;;;4.72;;
20287;SDS011;10303;51.960;8.372;2023-05-10T11:43:56;4.95;;;3.53;;
20287;SDS011;10303;51.960;8.372;2023-05-10T11:46:24;13.82;;;3.67;;
20287;SDS011;10303;51.960;8.372;2023-05-10T11:48:57;7.85;;;5.30;;
20287;SDS011;10303;51.960;8.372;2023-05-10T11:51:26;5.28;;;3.92;;
20287;SDS011;10303;51.960;8.372;2023-05-10T11:53:53;2.85;;;2.60;;
20287;SDS011;10303;51.960;8.372;2023-05-10T11:56:21;3.73;;;2.40;;
20287;SDS011;10303;51.960;8.372;2023-05-10T11:58:52;3.20;;;2.90;;
20287;SDS011;10303;51.960;8.372;2023-05-10T12:01:21;2.77;;;2.53;;
20287;SDS011;10303;51.960;8.372;2023-05-10T12:03:52;3.33;;;2.50;;
20287;SDS011;10303;51.960;8.372;2023-05-10T12:06:25;1.83;;;1.73;;
20287;SDS011;10303;51.960;8.372;2023-05-10T12:08:54;2.47;;;2.27;;
20287;SDS011;10303;51.960;8.372;2023-05-10T12:11:20;3.63;;;2.90;;
20287;SDS011;10303;51.960;8.372;2023-05-10T12:13:52;3.75;;;3.38;;
20287;SDS011;10303;51.960;8.372;2023-05-10T12:16:20;7.13;;;4.60;;
20287;SDS011;10303;51.960;8.372;2023-05-10T12:18:56;4.57;;;3.90;;
20287;SDS011;10303;51.960;8.372;2023-05-10T12:21:24;7.30;;;4.33;;
20287;SDS011;10303;51.960;8.372;2023-05-10T12:23:53;6.57;;;4.47;;
20287;SDS011;10303;51.960;8.372;2023-05-10T12:26:25;6.33;;;4.20;;
20287;SDS011;10303;51.960;8.372;2023-05-10T12:28:53;6.43;;;3.97;;
20287;SDS011;10303;51.960;8.372;2023-05-10T12:31:48;5.10;;;4.03;;
20287;SDS011;10303;51.960;8.372;2023-05-10T12:36:59;7.77;;;4.20;;
20287;SDS011;10303;51.960;8.372;2023-05-10T12:39:25;8.90;;;5.68;;
20287;SDS011;10303;51.960;8.372;2023-05-10T12:42:06;6.63;;;3.88;;
20287;SDS011;10303;51.960;8.372;2023-05-10T12:44:32;4.70;;;4.20;;
20287;SDS011;10303;51.960;8.372;2023-05-10T12:46:58;4.88;;;3.42;;
20287;SDS011;10303;51.960;8.372;2023-05-10T12:49:24;5.43;;;3.88;;
20287;SDS011;10303;51.960;8.372;2023-05-10T12:51:50;4.38;;;3.97;;
20287;SDS011;10303;51.960;8.372;2023-05-10T12:54:16;6.13;;;4.65;;
20287;SDS011;10303;51.960;8.372;2023-05-10T12:56:42;4.00;;;3.58;;
20287;SDS011;10303;51.960;8.372;2023-05-10T12:59:08;7.55;;;5.30;;
20287;SDS011;10303;51.960;8.372;2023-05-10T13:01:34;6.28;;;4.45;;
20287;SDS011;10303;51.960;8.372;2023-05-10T13:04:00;14.80;;;7.05;;
20287;SDS011;10303;51.960;8.372;2023-05-10T13:06:26;6.20;;;5.18;;
20287;SDS011;10303;51.960;8.372;2023-05-10T13:08:52;9.60;;;5.85;;
20287;SDS011;10303;51.960;8.372;2023-05-10T13:11:18;11.00;;;4.72;;
20287;SDS011;10303;51.960;8.372;2023-05-10T13:13:46;4.68;;;2.45;;
20287;SDS011;10303;51.960;8.372;2023-05-10T13:16:12;2.42;;;1.70;;
20287;SDS011;10303;51.960;8.372;2023-05-10T13:18:38;5.10;;;2.53;;
20287;SDS011;10303;51.960;8.372;2023-05-10T13:21:04;4.97;;;2.53;;
20287;SDS011;10303;51.960;8.372;2023-05-10T13:23:30;6.30;;;4.43;;
20287;SDS011;10303;51.960;8.372;2023-05-10T13:25:56;3.57;;;3.03;;
20287;SDS011;10303;51.960;8.372;2023-05-10T13:28:22;3.73;;;3.43;;
20287;SDS011;10303;51.960;8.372;2023-05-10T13:30:48;3.53;;;2.37;;
20287;SDS011;10303;51.960;8.372;2023-05-10T13:33:14;5.67;;;3.33;;
20287;SDS011;10303;51.960;8.372;2023-05-10T13:35:40;3.67;;;2.33;;
20287;SDS011;10303;51.960;8.372;2023-05-10T13:38:06;2.20;;;1.70;;
20287;SDS011;10303;51.960;8.372;2023-05-10T13:40:33;1.67;;;1.57;;
20287;SDS011;10303;51.960;8.372;2023-05-10T13:42:59;2.90;;;1.97;;
20287;SDS011;10303;51.960;8.372;2023-05-10T13:45:25;2.23;;;2.00;;
20287;SDS011;10303;51.960;8.372;2023-05-10T13:47:51;2.73;;;2.27;;
20287;SDS011;10303;51.960;8.372;2023-05-10T13:50:17;1.90;;;1.80;;
20287;SDS011;10303;51.960;8.372;2023-05-10T13:52:43;2.90;;;2.33;;
20287;SDS011;10303;51.960;8.372;2023-05-10T13:55:10;2.57;;;2.30;;
20287;SDS011;10303;51.960;8.372;2023-05-10T13:57:38;2.97;;;2.40;;
20287;SDS011;10303;51.960;8.372;2023-05-10T14:00:04;3.67;;;2.37;;
20287;SDS011;10303;51.960;8.372;2023-05-10T14:02:33;4.97;;;3.57;;
20287;SDS011;10303;51.960;8.372;2023-05-10T14:04:59;5.97;;;3.53;;
20287;SDS011;10303;51.960;8.372;2023-05-10T14:07:25;4.53;;;3.85;;
20287;SDS011;10303;51.960;8.372;2023-05-10T14:09:51;4.45;;;3.78;;
20287;SDS011;10303;51.960;8.372;2023-05-10T14:12:19;6.45;;;3.72;;
20287;SDS011;10303;51.960;8.372;2023-05-10T14:14:45;5.50;;;4.63;;
20287;SDS011;10303;51.960;8.372;2023-05-10T14:17:11;5.82;;;4.32;;
20287;SDS011;10303;51.960;8.372;2023-05-10T14:19:37;4.57;;;3.75;;
20287;SDS011;10303;51.960;8.372;2023-05-10T14:22:04;6.18;;;4.00;;
20287;SDS011;10303;51.960;8.372;2023-05-10T14:24:30;3.47;;;3.10;;
20287;SDS011;10303;51.960;8.372;2023-05-10T14:26:56;4.38;;;3.90;;
20287;SDS011;10303;51.960;8.372;2023-05-10T14:29:22;5.43;;;3.22;;
20287;SDS011;10303;51.960;8.372;2023-05-10T14:31:49;4.03;;;3.63;;
20287;SDS011;10303;51.960;8.372;2023-05-10T14:34:15;5.05;;;3.33;;
20287;SDS011;10303;51.960;8.372;2023-05-10T14:36:41;4.18;;;3.63;;
20287;SDS011;10303;51.960;8.372;2023-05-10T14:39:07;5.82;;;4.20;;
20287;SDS011;10303;51.960;8.372;2023-05-10T14:41:35;4.43;;;3.22;;
20287;SDS011;10303;51.960;8.372;2023-05-10T14:44:01;3.47;;;2.92;;
20287;SDS011;10303;51.960;8.372;2023-05-10T14:46:28;6.47;;;4.30;;
20287;SDS011;10303;51.960;8.372;2023-05-10T14:48:55;6.07;;;3.72;;
20287;SDS011;10303;51.960;8.372;2023-05-10T14:51:21;7.35;;;4.50;;
20287;SDS011;10303;51.960;8.372;2023-05-10T14:53:50;3.92;;;3.53;;
20287;SDS011;10303;51.960;8.372;2023-05-10T14:56:17;3.10;;;2.78;;
20287;SDS011;10303;51.960;8.372;2023-05-10T14:58:43;3.75;;;3.30;;
20287;SDS011;10303;51.960;8.372;2023-05-10T15:01:09;4.97;;;3.95;;
20287;SDS011;10303;51.960;8.372;2023-05-10T15:03:36;5.35;;;3.40;;
20287;SDS011;10303;51.960;8.372;2023-05-10T15:06:04;3.53;;;3.22;;
20287;SDS011;10303;51.960;8.372;2023-05-10T15:08:30;5.47;;;3.85;;
20287;SDS011;10303;51.960;8.372;2023-05-10T15:10:56;3.92;;;3.45;;
20287;SDS011;10303;51.960;8.372;2023-05-10T15:13:22;4.22;;;3.83;;
20287;SDS011;10303;51.960;8.372;2023-05-10T15:15:48;5.00;;;3.80;;
20287;SDS011;10303;51.960;8.372;2023-05-10T15:18:14;5.75;;;4.15;;
20287;SDS011;10303;51.960;8.372;2023-05-10T15:20:40;5.05;;;3.90;;
20287;SDS011;10303;51.960;8.372;2023-05-10T15:23:06;3.53;;;3.20;;